Time;durP1;ratioP1;P1;durP2;ratioP2;P2;SDS_P1;SDS_P2;PMS_P1;PMS_P2;Temp;Humidity;BMP_temperature;BMP_pressure;BME280_temperature;BME280_humidity;BME280_pressure;Samples;Min_cycle;Max_cycle;Signal;HPM_P1;HPM_P2
2023/07/25 04:32:52;;;;;;;;;4.00;4.00;;;;;26.79;47.40;100108.16;4937866;28;45528;-80
2023/07/25 04:35:17;;;;;;;;;3.00;3.00;;;;;26.56;48.13;100114.59;4938392;28;45330;-80
2023/07/25 04:37:42;;;;;;;;;6.00;4.50;;;;;26.58;48.07;100130.91;4935455;28;48177;-78
2023/07/25 04:40:08;;;;;;;;;3.50;2.75;;;;;26.27;47.45;100098.09;4954802;28;45396;-77
2023/07/25 04:42:33;;;;;;;;;3.00;2.00;;;;;26.44;48.56;100124.38;4957583;28;45385;-79
2023/07/25 04:44:59;;;;;;;;;2.50;2.50;;;;;26.38;48.88;100127.84;4956917;28;56793;-79
2023/07/25 04:47:24;;;;;;;;;3.00;3.00;;;;;26.31;48.38;100121.38;4948666;28;45343;-80
2023/07/25 04:49:50;;;;;;;;;3.00;3.00;;;;;26.33;48.80;100131.16;4957460;28;45339;-80
2023/07/25 04:52:16;;;;;;;;;2.00;2.00;;;;;26.31;48.70;100136.00;4957961;28;45415;-79
2023/07/25 04:54:41;;;;;;;;;3.00;3.00;;;;;26.37;49.19;100148.13;4957097;28;45382;-80
2023/07/25 04:57:06;;;;;;;;;4.75;3.25;;;;;26.37;48.48;100142.63;4957243;28;45269;-80
2023/07/25 04:59:32;;;;;;;;;3.75;3.75;;;;;26.45;48.49;100155.47;4957312;28;45219;-80
2023/07/25 05:01:57;;;;;;;;;4.50;4.50;;;;;26.32;48.96;100142.34;4957464;28;45898;-80
2023/07/25 05:04:23;;;;;;;;;3.00;3.00;;;;;26.32;48.88;100145.09;4956319;28;45509;-78
2023/07/25 05:06:48;;;;;;;;;6.00;5.75;;;;;26.38;48.84;100156.19;4957949;28;45478;-79
2023/07/25 05:09:16;;;;;;;;;6.00;6.00;;;;;26.26;48.69;100138.44;4936774;28;45459;-80
2023/07/25 05:11:41;;;;;;;;;3.25;3.25;;;;;26.33;49.03;100160.53;4948715;28;45468;-77
2023/07/25 05:14:06;;;;;;;;;4.00;4.00;;;;;26.18;48.68;100140.38;4940013;28;46285;-74
2023/07/25 05:16:32;;;;;;;;;4.25;4.25;;;;;26.20;49.28;100160.31;4957098;28;45374;-76
2023/07/25 05:18:57;;;;;;;;;5.00;3.50;;;;;26.15;49.03;100144.34;4956871;28;45306;-69
2023/07/25 05:21:22;;;;;;;;;4.50;4.50;;;;;26.23;49.52;100162.66;4957250;28;45167;-71
2023/07/25 05:23:48;;;;;;;;;3.75;3.75;;;;;26.32;48.93;100167.94;4956890;28;45409;-71
2023/07/25 05:26:13;;;;;;;;;5.25;5.25;;;;;26.45;49.52;100155.47;4956866;28;45306;-72
2023/07/25 05:28:38;;;;;;;;;4.50;4.50;;;;;26.51;48.48;100160.19;4936285;28;45705;-76
2023/07/25 05:31:05;;;;;;;;;3.00;3.00;;;;;26.55;48.63;100158.75;4939319;28;45560;-75
2023/07/25 05:33:31;;;;;;;;;5.50;5.50;;;;;26.64;49.12;100166.75;4959151;28;45461;-78
2023/07/25 05:36:03;;;;;;;;;3.75;3.75;;;;;26.68;48.67;100172.75;4956523;28;46300;-74
2023/07/25 05:38:29;;;;;;;;;4.50;4.50;;;;;26.72;48.83;100165.81;4952122;28;45772;-73
2023/07/25 05:40:56;;;;;;;;;5.50;4.50;;;;;26.74;48.54;100164.56;4956623;28;45387;-74
2023/07/25 05:43:21;;;;;;;;;7.00;5.50;;;;;26.80;48.85;100173.97;4956657;28;45427;-72
2023/07/25 05:45:47;;;;;;;;;4.00;4.00;;;;;26.78;48.26;100154.06;4950651;28;46198;-71
2023/07/25 05:48:12;;;;;;;;;4.25;2.75;;;;;26.85;48.05;100162.41;4956303;28;45430;-72
2023/07/25 05:50:37;;;;;;;;;5.00;5.00;;;;;27.00;48.26;100169.66;4956690;28;45366;-71
2023/07/25 05:53:02;;;;;;;;;6.00;6.00;;;;;26.94;48.31;100169.56;4955640;28;45374;-72
2023/07/25 05:55:28;;;;;;;;;4.50;3.50;;;;;27.03;47.89;100176.69;4956162;28;45497;-71
2023/07/25 05:57:53;;;;;;;;;5.00;5.00;;;;;27.21;47.51;100187.28;4954719;28;45353;-70
2023/07/25 06:00:18;;;;;;;;;5.25;5.00;;;;;27.19;46.96;100181.13;4956572;28;45530;-72
2023/07/25 06:02:44;;;;;;;;;6.00;4.50;;;;;27.30;47.28;100194.41;4956040;28;45391;-75
2023/07/25 06:05:09;;;;;;;;;6.75;6.00;;;;;27.22;47.22;100189.00;4956171;28;45512;-77
2023/07/25 06:07:34;;;;;;;;;6.00;4.75;;;;;27.18;47.60;100193.16;4957333;28;45283;-77
2023/07/25 06:10:00;;;;;;;;;5.75;5.75;;;;;27.29;47.28;100200.94;4938661;28;45271;-74
2023/07/25 06:12:25;;;;;;;;;5.75;5.75;;;;;27.30;47.24;100202.66;4955365;28;45365;-74
2023/07/25 06:14:50;;;;;;;;;5.75;4.00;;;;;27.28;46.66;100211.09;4956695;28;46035;-75
2023/07/25 06:17:16;;;;;;;;;6.00;6.00;;;;;27.21;47.22;100201.06;4938196;28;45410;-73
2023/07/25 06:19:41;;;;;;;;;8.00;8.00;;;;;27.24;47.57;100212.53;4957402;28;45342;-75
2023/07/25 06:22:07;;;;;;;;;7.00;7.00;;;;;27.28;46.91;100207.50;4938340;28;46168;-74
2023/07/25 06:24:33;;;;;;;;;8.00;5.25;;;;;27.28;47.00;100207.50;4955820;28;46084;-73
2023/07/25 06:26:58;;;;;;;;;6.25;6.25;;;;;27.35;47.11;100216.69;4955727;28;45319;-74
2023/07/25 06:29:23;;;;;;;;;7.75;7.75;;;;;27.34;46.44;100221.34;4955323;28;45485;-74
2023/07/25 06:31:49;;;;;;;;;6.00;6.00;;;;;27.26;46.79;100204.06;4955191;28;45552;-73
2023/07/25 06:34:14;;;;;;;;;5.50;5.50;;;;;27.28;46.60;100219.38;4955786;28;45452;-74
2023/07/25 06:36:39;;;;;;;;;6.25;6.25;;;;;27.24;46.92;100220.78;4955657;28;45484;-73
2023/07/25 06:39:04;;;;;;;;;7.50;7.00;;;;;27.14;46.72;100217.44;4937405;28;45987;-72
2023/07/25 06:41:30;;;;;;;;;7.75;7.00;;;;;27.10;47.20;100227.16;4936739;28;50426;-73
2023/07/25 06:43:55;;;;;;;;;7.50;6.00;;;;;27.27;47.19;100225.91;4955547;28;46397;-72
2023/07/25 06:46:24;;;;;;;;;5.25;5.25;;;;;27.39;46.53;100227.13;4953854;28;45476;-73
2023/07/25 06:48:52;;;;;;;;;6.50;6.50;;;;;27.35;46.63;100236.81;4942693;28;45320;-73
2023/07/25 06:51:19;;;;;;;;;11.25;11.25;;;;;27.24;45.62;100233.69;4942690;28;45477;-73
2023/07/25 06:53:44;;;;;;;;;14.75;13.25;;;;;27.26;45.91;100242.59;4955015;28;46860;-72
2023/07/25 06:56:10;;;;;;;;;14.00;12.00;;;;;27.22;45.59;100247.63;4954840;28;45331;-74
2023/07/25 06:58:35;;;;;;;;;13.25;12.25;;;;;27.22;45.29;100258.63;4955229;28;45509;-73
2023/07/25 07:01:00;;;;;;;;;10.00;9.75;;;;;27.15;44.82;100256.84;4955401;28;45350;-73
2023/07/25 07:03:26;;;;;;;;;15.25;11.50;;;;;27.05;44.66;100265.41;4955592;28;45956;-73
2023/07/25 07:05:55;;;;;;;;;13.25;12.75;;;;;27.03;44.49;100265.59;4952670;28;45532;-76
2023/07/25 07:08:21;;;;;;;;;18.50;17.50;;;;;26.93;44.85;100269.63;4934970;28;45387;-75
2023/07/25 07:10:46;;;;;;;;;12.75;12.00;;;;;26.77;45.36;100273.38;4951400;28;45356;-76
2023/07/25 07:13:12;;;;;;;;;14.00;14.00;;;;;26.85;45.17;100277.94;4934736;28;46099;-73
2023/07/25 07:15:39;;;;;;;;;15.00;14.00;;;;;26.74;44.54;100293.00;4950969;28;45477;-73
2023/07/25 07:18:04;;;;;;;;;16.00;16.00;;;;;26.74;45.01;100288.34;4959391;28;45362;-69
2023/07/25 07:20:30;;;;;;;;;14.25;14.25;;;;;26.70;44.78;100292.53;4951039;28;45355;-71
2023/07/25 07:22:55;;;;;;;;;13.25;12.75;;;;;26.67;45.27;100308.53;4949393;28;45392;-69
2023/07/25 07:25:20;;;;;;;;;11.75;11.75;;;;;26.67;44.58;100312.13;4949115;28;47200;-70
2023/07/25 07:27:46;;;;;;;;;8.50;8.50;;;;;26.68;44.29;100308.34;4955772;28;45537;-71
2023/07/25 07:30:11;;;;;;;;;9.25;9.25;;;;;26.56;44.90;100315.31;4961942;28;45302;-71
2023/07/25 07:32:36;;;;;;;;;11.00;9.00;;;;;26.59;44.80;100320.44;4951995;28;46044;-70
2023/07/25 07:35:02;;;;;;;;;9.75;9.75;;;;;26.55;44.21;100310.84;4951076;28;45540;-70
2023/07/25 07:37:27;;;;;;;;;6.75;6.75;;;;;26.66;44.59;100324.16;4956015;28;45347;-70
2023/07/25 07:39:53;;;;;;;;;10.50;9.50;;;;;26.62;44.21;100335.72;4952279;28;46733;-71
2023/07/25 07:42:18;;;;;;;;;9.75;7.75;;;;;26.48;43.70;100331.88;4957889;28;46181;-69
2023/07/25 07:44:44;;;;;;;;;7.50;7.50;;;;;26.43;43.93;100348.06;4962499;28;45792;-69
2023/07/25 07:47:10;;;;;;;;;8.00;8.00;;;;;26.43;43.68;100358.22;4946097;28;45497;-69
2023/07/25 07:49:35;;;;;;;;;5.50;5.50;;;;;26.32;43.57;100342.97;4955243;28;45520;-70
2023/07/25 07:52:01;;;;;;;;;5.25;5.25;;;;;26.32;43.04;100362.22;4954702;28;45486;-71
2023/07/25 07:54:26;;;;;;;;;4.25;4.25;;;;;26.22;43.51;100361.56;4955056;28;45478;-72
2023/07/25 07:56:51;;;;;;;;;3.25;3.25;;;;;26.27;43.81;100372.91;4955249;28;45357;-72
2023/07/25 07:59:17;;;;;;;;;3.50;3.50;;;;;26.28;43.12;100380.97;4954924;28;45343;-71
2023/07/25 08:01:44;;;;;;;;;3.00;3.00;;;;;26.15;42.76;100386.16;4954428;28;45417;-69
2023/07/25 08:04:09;;;;;;;;;4.00;3.00;;;;;26.21;43.99;100385.44;4939749;28;45406;-71
2023/07/25 08:06:35;;;;;;;;;3.75;3.50;;;;;26.17;43.29;100397.81;4937709;28;45504;-69
2023/07/25 08:09:00;;;;;;;;;6.75;4.25;;;;;26.11;42.70;100393.06;4954802;28;45402;-71
2023/07/25 08:11:25;;;;;;;;;4.25;4.25;;;;;26.07;42.50;100390.84;4933887;28;45917;-72
2023/07/25 08:13:51;;;;;;;;;3.00;3.00;;;;;25.84;42.69;100388.88;4950012;28;45353;-70
2023/07/25 08:16:16;;;;;;;;;2.00;2.00;;;;;25.81;42.69;100393.84;4955431;28;46044;-72
2023/07/25 08:18:41;;;;;;;;;2.00;2.00;;;;;25.76;43.04;100396.28;4957437;28;45386;-70
2023/07/25 08:21:07;;;;;;;;;1.50;1.50;;;;;25.75;43.44;100400.91;4958065;28;46108;-70
2023/07/25 08:23:32;;;;;;;;;2.25;2.25;;;;;25.81;43.03;100408.44;4957462;28;45321;-71
2023/07/25 08:25:57;;;;;;;;;1.75;1.75;;;;;25.90;42.54;100407.38;4949596;28;45575;-71
2023/07/25 08:28:24;;;;;;;;;2.75;2.75;;;;;25.95;42.42;100413.19;4935523;28;45855;-71
2023/07/25 08:30:59;;;;;;;;;1.75;1.75;;;;;26.06;43.37;100419.34;4957194;28;45546;-71
2023/07/25 08:33:26;;;;;;;;;4.00;2.00;;;;;26.25;42.76;100424.41;4957024;28;45389;-72
2023/07/25 08:35:53;;;;;;;;;3.00;3.00;;;;;26.28;41.47;100426.84;4957650;28;45378;-71
2023/07/25 08:38:18;;;;;;;;;3.00;2.00;;;;;26.31;41.57;100431.97;4936462;28;45445;-72
2023/07/25 08:40:49;;;;;;;;;2.75;2.75;;;;;26.38;42.42;100441.19;4952896;28;47826;-71
2023/07/25 08:43:18;;;;;;;;;1.50;0.75;;;;;26.41;41.14;100440.84;4957609;28;45374;-72
2023/07/25 08:45:46;;;;;;;;;2.00;2.00;;;;;26.48;41.29;100443.72;4957235;28;45264;-70
2023/07/25 08:48:13;;;;;;;;;3.75;2.00;;;;;26.46;40.76;100454.91;4956970;28;45398;-71
2023/07/25 08:50:42;;;;;;;;;2.75;1.00;;;;;26.58;41.03;100444.38;4956995;28;46264;-71
2023/07/25 08:53:11;;;;;;;;;2.00;2.00;;;;;26.57;40.38;100465.50;4957153;28;45469;-72
2023/07/25 08:55:38;;;;;;;;;1.50;1.50;;;;;26.60;40.98;100478.91;4957498;28;45377;-71
2023/07/25 08:58:04;;;;;;;;;1.00;1.00;;;;;26.60;40.40;100487.16;4957171;28;45379;-70
2023/07/25 09:00:29;;;;;;;;;2.00;2.00;;;;;26.66;40.33;100491.91;4936202;28;45929;-73
2023/07/25 09:02:55;;;;;;;;;1.50;1.50;;;;;26.64;39.70;100495.88;4955531;28;45420;-71
2023/07/25 09:05:21;;;;;;;;;2.75;1.50;;;;;26.54;39.37;100496.09;4939668;28;45390;-72
2023/07/25 09:07:49;;;;;;;;;0.75;0.75;;;;;26.52;40.16;100478.09;4957203;28;45400;-72
2023/07/25 09:10:14;;;;;;;;;1.25;1.25;;;;;26.64;40.63;100493.97;4936095;28;47753;-72
2023/07/25 09:12:39;;;;;;;;;2.75;2.00;;;;;26.73;39.72;100497.53;4955118;28;47235;-72
2023/07/25 09:15:05;;;;;;;;;2.00;2.00;;;;;26.89;39.84;100513.09;4957357;28;45708;-70
2023/07/25 09:17:31;;;;;;;;;4.00;4.00;;;;;27.03;39.88;100515.97;4956663;28;45334;-70
2023/07/25 09:19:57;;;;;;;;;1.75;1.75;;;;;27.02;39.68;100507.91;4956488;28;45449;-71
2023/07/25 09:22:33;;;;;;;;;3.00;3.00;;;;;27.08;39.68;100520.91;4956867;28;45338;-70
2023/07/25 09:24:59;;;;;;;;;1.00;1.00;;;;;27.25;38.92;100530.78;4957667;28;45451;-73
2023/07/25 09:27:27;;;;;;;;;4.50;4.50;;;;;27.29;39.08;100532.13;4955322;28;45607;-72
2023/07/25 09:29:53;;;;;;;;;2.25;2.25;;;;;27.28;39.21;100541.44;4956783;28;45340;-70
2023/07/25 09:32:23;;;;;;;;;3.50;1.50;;;;;27.18;38.93;100539.94;4956338;28;45393;-71
2023/07/25 09:34:56;;;;;;;;;1.50;1.50;;;;;27.19;39.56;100549.94;4936439;28;45518;-72
2023/07/25 09:37:22;;;;;;;;;4.25;2.25;;;;;27.10;40.03;100557.38;4956436;28;45414;-71
2023/07/25 09:39:48;;;;;;;;;5.75;3.75;;;;;27.13;39.81;100562.53;4955934;28;45461;-72
2023/07/25 09:42:13;;;;;;;;;3.75;3.75;;;;;27.18;39.97;100564.72;4956761;28;45418;-71
2023/07/25 09:44:46;;;;;;;;;2.50;2.50;;;;;27.22;39.50;100561.41;4956259;28;45485;-72
2023/07/25 09:47:12;;;;;;;;;2.50;2.50;;;;;27.40;39.71;100569.38;4956363;28;45398;-71
2023/07/25 09:49:37;;;;;;;;;5.75;3.25;;;;;27.37;39.43;100567.88;4956644;28;45378;-72
2023/07/25 09:52:04;;;;;;;;;5.50;4.00;;;;;27.36;39.49;100555.13;4956751;28;45428;-71
2023/07/25 09:54:30;;;;;;;;;3.50;3.50;;;;;27.52;39.72;100575.31;4957030;28;45525;-70
2023/07/25 09:56:56;;;;;;;;;3.00;3.00;;;;;27.54;39.26;100576.03;4936284;28;46064;-69
2023/07/25 09:59:25;;;;;;;;;4.00;4.00;;;;;27.49;38.89;100579.28;4952221;28;45503;-70
2023/07/25 10:01:50;;;;;;;;;5.00;5.00;;;;;27.41;39.65;100587.59;4955843;28;45433;-72
2023/07/25 10:04:16;;;;;;;;;5.00;5.00;;;;;27.52;39.32;100583.59;4955972;28;45335;-72
2023/07/25 10:06:42;;;;;;;;;4.25;4.25;;;;;27.41;39.47;100579.34;4965484;28;45623;-72
2023/07/25 10:09:09;;;;;;;;;3.25;3.25;;;;;27.59;39.12;100582.69;4959892;28;45370;-71
2023/07/25 10:11:35;;;;;;;;;3.75;3.75;;;;;27.72;39.24;100590.34;4956035;28;45409;-72
2023/07/25 10:14:01;;;;;;;;;5.00;5.00;;;;;27.83;38.32;100584.38;4954776;28;45434;-72
2023/07/25 10:16:26;;;;;;;;;13.25;9.75;;;;;27.94;37.87;100589.44;4955965;28;45338;-74
2023/07/25 10:18:54;;;;;;;;;7.25;6.00;;;;;28.06;38.01;100584.34;4955826;28;45944;-74
2023/07/25 10:21:26;;;;;;;;;5.50;5.50;;;;;28.14;37.60;100590.63;4954017;28;45470;-73
2023/07/25 10:24:00;;;;;;;;;5.75;5.75;;;;;28.21;37.70;100580.59;4956254;28;45256;-73
2023/07/25 10:26:26;;;;;;;;;7.50;7.50;;;;;28.31;36.95;100572.06;4938052;28;45521;-74
2023/07/25 10:28:52;;;;;;;;;6.00;5.75;;;;;28.44;37.30;100572.25;4955707;28;45273;-74
2023/07/25 10:31:23;;;;;;;;;6.75;6.25;;;;;28.56;37.09;100565.22;4934897;28;45476;-75
2023/07/25 10:33:57;;;;;;;;;7.25;7.00;;;;;28.70;36.58;100568.13;4954991;28;45434;-74
2023/07/25 10:36:24;;;;;;;;;7.75;7.75;;;;;28.74;36.46;100578.59;4955591;28;45476;-75
2023/07/25 10:38:50;;;;;;;;;6.75;6.75;;;;;28.81;36.32;100571.28;4955422;28;45598;-72
2023/07/25 10:41:16;;;;;;;;;9.50;8.50;;;;;28.92;35.66;100570.78;4955404;28;45251;-75
2023/07/25 10:43:45;;;;;;;;;8.75;8.75;;;;;29.11;36.03;100576.75;4955763;28;45364;-74
2023/07/25 10:46:17;;;;;;;;;7.00;7.00;;;;;29.07;35.64;100570.78;4955304;28;45290;-75
2023/07/25 10:48:51;;;;;;;;;6.25;5.75;;;;;29.03;35.65;100563.06;4955767;28;46211;-71
2023/07/25 10:51:18;;;;;;;;;5.25;5.25;;;;;29.10;35.42;100577.78;4955610;28;45379;-72
2023/07/25 10:54:09;;;;;;;;;8.50;8.50;;;;;29.15;35.34;100589.97;4955739;28;45380;-73
2023/07/25 10:56:36;;;;;;;;;7.50;5.75;;;;;29.12;35.18;100598.63;4955150;28;45486;-74
2023/07/25 10:59:11;;;;;;;;;5.25;5.25;;;;;29.03;34.81;100599.78;4955481;28;45555;-73
2023/07/25 11:01:43;;;;;;;;;7.00;5.75;;;;;28.91;34.86;100606.88;4934749;28;45600;-73
2023/07/25 11:04:31;;;;;;;;;3.25;3.25;;;;;28.83;35.32;100604.22;4932899;28;45386;-70
2023/07/25 11:07:09;;;;;;;;;6.50;5.25;;;;;28.85;34.76;100602.09;4955540;28;45309;-70
2023/07/25 11:09:39;;;;;;;;;6.25;6.25;;;;;28.84;35.27;100604.00;4954940;28;45445;-69
2023/07/25 11:12:05;;;;;;;;;6.75;6.75;;;;;28.63;35.28;100606.66;4955471;28;45291;-69
2023/07/25 11:14:31;;;;;;;;;6.00;6.00;;;;;28.71;34.88;100612.09;4955447;28;45367;-69
2023/07/25 11:16:58;;;;;;;;;6.75;6.00;;;;;28.78;35.30;100606.69;4955370;28;45331;-70
2023/07/25 11:19:27;;;;;;;;;6.00;6.00;;;;;29.04;34.85;100603.41;4955342;28;45475;-69
2023/07/25 11:21:52;;;;;;;;;8.25;6.25;;;;;29.20;34.87;100603.19;4955145;28;45409;-70
2023/07/25 11:24:19;;;;;;;;;7.50;6.75;;;;;29.15;34.62;100608.44;4955476;28;45869;-69
2023/07/25 11:26:45;;;;;;;;;5.25;5.25;;;;;29.22;33.94;100596.44;4954663;28;45363;-69
2023/07/25 11:29:12;;;;;;;;;4.50;4.50;;;;;29.39;34.09;100605.34;4953862;28;45544;-66
2023/07/25 11:31:45;;;;;;;;;5.75;5.75;;;;;29.62;33.38;100607.91;4952529;28;45821;-66
2023/07/25 11:34:16;;;;;;;;;6.00;4.75;;;;;29.73;33.28;100608.25;4966198;28;45164;-70
2023/07/25 11:36:42;;;;;;;;;5.75;3.75;;;;;29.96;33.03;100599.78;4954536;28;45387;-72
2023/07/25 11:39:09;;;;;;;;;4.25;4.25;;;;;30.21;32.88;100597.41;4954489;28;46347;-71
2023/07/25 11:41:38;;;;;;;;;3.75;3.75;;;;;30.56;33.22;100603.84;4954876;28;45394;-71
2023/07/25 11:44:08;;;;;;;;;5.00;5.00;;;;;30.40;31.91;100595.84;4954874;28;45350;-73
2023/07/25 11:46:34;;;;;;;;;4.75;4.75;;;;;30.27;31.56;100601.31;4952502;28;45672;-71
2023/07/25 11:49:00;;;;;;;;;5.50;5.50;;;;;30.21;31.72;100600.19;4948594;28;47132;-72
2023/07/25 11:51:26;;;;;;;;;5.75;3.75;;;;;30.23;31.51;100609.13;4954695;28;45548;-72
2023/07/25 11:53:53;;;;;;;;;3.00;3.00;;;;;30.16;31.57;100612.91;4958122;28;45480;-70
2023/07/25 11:56:20;;;;;;;;;5.25;5.25;;;;;30.11;31.39;100615.44;4957460;28;45730;-72
2023/07/25 11:58:49;;;;;;;;;4.50;4.50;;;;;30.05;31.56;100617.94;4956108;28;46832;-71
2023/07/25 12:01:18;;;;;;;;;3.25;3.25;;;;;29.79;31.74;100617.66;4956769;28;45496;-72
2023/07/25 12:03:48;;;;;;;;;3.75;3.00;;;;;29.49;32.47;100625.22;4949709;28;45578;-72
2023/07/25 12:06:13;;;;;;;;;3.50;3.50;;;;;29.23;31.34;100620.22;4956056;28;45688;-73
2023/07/25 12:08:43;;;;;;;;;3.00;3.00;;;;;29.14;32.14;100623.28;4957128;28;46371;-70
2023/07/25 12:11:13;;;;;;;;;2.75;2.75;;;;;29.01;32.12;100620.38;4956611;28;45357;-71
2023/07/25 12:13:47;;;;;;;;;2.50;2.50;;;;;29.11;32.37;100635.56;4958254;28;45459;-70
2023/07/25 12:16:26;;;;;;;;;7.50;4.75;;;;;28.94;32.15;100640.44;4957113;28;45760;-70
2023/07/25 12:18:53;;;;;;;;;3.00;2.50;;;;;28.92;33.13;100650.81;4957771;28;45382;-71
2023/07/25 12:21:29;;;;;;;;;4.50;2.50;;;;;28.69;33.36;100643.66;4939484;28;46263;-71
2023/07/25 12:23:58;;;;;;;;;3.50;3.50;;;;;28.53;33.63;100648.31;4957899;28;45461;-71
2023/07/25 12:26:23;;;;;;;;;3.25;3.25;;;;;28.45;33.88;100655.84;4957319;28;45913;-74
2023/07/25 12:28:50;;;;;;;;;5.00;3.50;;;;;28.30;34.23;100661.34;4957582;28;46077;-73
2023/07/25 12:31:16;;;;;;;;;3.00;3.00;;;;;28.21;34.82;100660.56;4957422;28;45371;-72
2023/07/25 12:33:44;;;;;;;;;3.50;3.50;;;;;28.34;35.13;100653.53;4957502;28;45389;-71
2023/07/25 12:36:11;;;;;;;;;3.25;3.25;;;;;28.39;35.02;100662.97;4957292;28;45350;-73
2023/07/25 12:38:36;;;;;;;;;5.25;4.00;;;;;28.41;35.20;100649.81;4957072;28;45555;-72
2023/07/25 12:41:02;;;;;;;;;3.75;3.75;;;;;28.58;34.96;100659.63;4938870;28;45585;-72
2023/07/25 12:43:28;;;;;;;;;4.00;4.00;;;;;28.48;34.10;100656.31;4957127;28;45441;-73
2023/07/25 12:45:53;;;;;;;;;3.00;3.00;;;;;28.42;33.67;100667.22;4957131;28;45372;-73
2023/07/25 12:48:20;;;;;;;;;4.25;3.50;;;;;28.41;33.58;100673.81;4957156;28;45371;-73
2023/07/25 12:50:46;;;;;;;;;1.50;1.50;;;;;28.34;33.48;100668.16;4967924;28;45269;-73
2023/07/25 12:53:11;;;;;;;;;5.00;4.00;;;;;28.23;33.86;100657.63;4958466;28;45366;-71
2023/07/25 12:55:37;;;;;;;;;2.50;2.50;;;;;28.27;33.66;100663.59;4957032;28;45233;-72
2023/07/25 12:58:03;;;;;;;;;2.75;2.75;;;;;28.42;33.95;100656.19;4939721;28;46228;-70
2023/07/25 13:00:28;;;;;;;;;3.00;3.00;;;;;28.71;34.36;100664.50;4957536;28;45473;-71
2023/07/25 13:02:56;;;;;;;;;3.00;3.00;;;;;29.07;33.32;100666.53;4957223;28;45477;-72
2023/07/25 13:05:21;;;;;;;;;2.25;1.00;;;;;29.29;32.81;100666.38;4956643;28;45310;-71
2023/07/25 13:07:48;;;;;;;;;2.00;2.00;;;;;29.45;32.61;100658.94;4957497;28;46203;-71
2023/07/25 13:10:13;;;;;;;;;2.00;2.00;;;;;29.79;32.91;100650.81;4957365;28;45377;-72
2023/07/25 13:12:39;;;;;;;;;2.75;2.75;;;;;30.02;32.17;100658.97;4957356;28;45313;-71
2023/07/25 13:15:05;;;;;;;;;5.00;3.75;;;;;30.22;31.41;100659.97;4957245;28;45495;-71
2023/07/25 13:17:32;;;;;;;;;2.00;2.00;;;;;30.50;31.27;100660.00;4956673;28;45258;-71
2023/07/25 13:19:57;;;;;;;;;1.75;1.75;;;;;30.86;30.47;100657.06;4956980;28;45493;-72
2023/07/25 13:22:23;;;;;;;;;2.00;2.00;;;;;31.19;30.04;100648.94;4956843;28;45360;-70
2023/07/25 13:24:48;;;;;;;;;2.75;2.75;;;;;31.29;29.56;100651.34;4957282;28;45309;-69
2023/07/25 13:27:13;;;;;;;;;1.75;1.75;;;;;31.73;28.94;100650.84;4961598;28;45397;-72
2023/07/25 13:29:39;;;;;;;;;2.00;2.00;;;;;32.08;29.87;100645.97;4956007;28;45808;-66
2023/07/25 13:32:05;;;;;;;;;1.50;1.50;;;;;32.28;27.79;100633.84;4956684;28;45532;-71
2023/07/25 13:34:30;;;;;;;;;3.50;3.50;;;;;32.64;27.79;100646.41;4956972;28;45488;-71
2023/07/25 13:36:55;;;;;;;;;3.00;3.00;;;;;32.98;27.24;100654.47;4958660;28;45691;-70
2023/07/25 13:39:21;;;;;;;;;2.00;2.00;;;;;32.92;26.91;100648.94;4945746;28;48426;-71
2023/07/25 13:41:46;;;;;;;;;3.00;2.00;;;;;33.01;26.59;100656.78;4961386;28;45425;-70
2023/07/25 13:44:11;;;;;;;;;3.75;2.00;;;;;32.97;26.34;100649.13;4948949;28;45570;-69
2023/07/25 13:46:37;;;;;;;;;1.75;1.75;;;;;32.84;25.72;100649.13;4964079;28;46060;-70
2023/07/25 13:49:02;;;;;;;;;2.00;2.00;;;;;33.08;26.68;100659.56;4957915;28;50773;-70
2023/07/25 13:51:28;;;;;;;;;3.00;3.00;;;;;33.06;26.48;100650.56;4944854;28;45588;-72
2023/07/25 13:53:53;;;;;;;;;3.00;1.75;;;;;32.84;25.38;100650.00;4951450;28;45369;-69
2023/07/25 13:56:18;;;;;;;;;3.00;3.00;;;;;32.44;25.82;100654.75;4936088;28;46099;-71
2023/07/25 13:58:46;;;;;;;;;2.25;2.25;;;;;32.01;26.56;100670.94;4937914;28;45536;-71
2023/07/25 14:01:12;;;;;;;;;3.00;3.00;;;;;31.68;26.77;100670.03;4957249;28;45315;-70
2023/07/25 14:03:37;;;;;;;;;2.50;2.50;;;;;32.07;26.57;100663.69;4957622;28;45215;-69
2023/07/25 14:06:02;;;;;;;;;3.50;2.75;;;;;31.86;26.99;100678.59;4955203;28;46056;-68
2023/07/25 14:08:28;;;;;;;;;2.00;2.00;;;;;31.77;26.90;100691.78;4954816;28;45248;-70
2023/07/25 14:10:54;;;;;;;;;2.00;2.00;;;;;31.69;27.13;100700.31;4956279;28;45330;-70
2023/07/25 14:13:22;;;;;;;;;1.25;1.25;;;;;32.04;26.30;100694.63;4954599;28;45543;-71
2023/07/25 14:15:49;;;;;;;;;2.00;2.00;;;;;32.03;26.73;100695.69;4956062;28;45972;-71
2023/07/25 14:18:15;;;;;;;;;1.50;1.50;;;;;31.92;25.95;100702.69;4939052;28;45427;-70
2023/07/25 14:20:40;;;;;;;;;1.50;1.50;;;;;31.82;26.63;100716.09;4956266;28;45425;-70
2023/07/25 14:23:06;;;;;;;;;2.75;2.75;;;;;31.61;26.63;100706.00;4956403;28;45464;-71
2023/07/25 14:25:31;;;;;;;;;2.00;1.25;;;;;31.63;26.65;100706.69;4955716;28;46485;-71
2023/07/25 14:27:56;;;;;;;;;1.00;1.00;;;;;31.75;26.74;100704.16;4956134;28;45367;-72
2023/07/25 14:30:22;;;;;;;;;0.75;0.75;;;;;31.80;26.25;100709.94;4956113;28;45296;-73
2023/07/25 14:32:47;;;;;;;;;2.50;1.50;;;;;31.85;26.75;100711.00;4955545;28;45531;-70
2023/07/25 14:35:12;;;;;;;;;2.00;2.00;;;;;31.88;26.05;100709.75;4955683;28;46512;-72
2023/07/25 14:37:38;;;;;;;;;1.75;1.75;;;;;31.76;26.52;100708.63;4962006;28;45423;-70
2023/07/25 14:40:06;;;;;;;;;1.75;1.75;;;;;31.64;26.78;100708.41;4964046;28;45545;-71
2023/07/25 14:42:31;;;;;;;;;1.75;1.50;;;;;31.67;27.41;100716.28;4956514;28;46417;-69
2023/07/25 14:44:57;;;;;;;;;2.00;2.00;;;;;31.67;27.02;100716.28;4956937;28;45562;-72
2023/07/25 14:47:22;;;;;;;;;5.00;5.00;;;;;32.09;27.76;100714.25;4948023;28;45381;-71
2023/07/25 14:49:47;;;;;;;;;2.75;2.75;;;;;32.66;27.10;100708.13;4949998;28;45640;-70
2023/07/25 14:52:13;;;;;;;;;2.25;2.00;;;;;33.46;26.09;100714.34;4948603;28;49648;-70
2023/07/25 14:54:38;;;;;;;;;2.25;2.25;;;;;34.31;25.77;100715.81;4949816;28;46430;-70
2023/07/25 14:57:04;;;;;;;;;2.75;2.75;;;;;35.15;24.54;100724.47;4955458;28;45313;-71
2023/07/25 14:59:30;;;;;;;;;2.50;2.50;;;;;35.85;23.64;100715.69;4955127;28;45545;-71
2023/07/25 15:01:55;;;;;;;;;3.00;3.00;;;;;36.35;23.33;100721.81;4968372;28;45474;-70
2023/07/25 15:04:20;;;;;;;;;1.00;1.00;;;;;36.52;22.57;100717.22;4965919;28;46254;-71
2023/07/25 15:06:45;;;;;;;;;0.50;0.50;;;;;36.32;21.99;100725.09;4951682;28;45346;-68
2023/07/25 15:09:11;;;;;;;;;1.75;1.75;;;;;35.95;22.25;100722.41;4950831;28;45456;-70
2023/07/25 15:11:36;;;;;;;;;1.00;1.00;;;;;35.71;22.85;100725.31;4948805;28;45220;-71
2023/07/25 15:14:02;;;;;;;;;3.00;3.00;;;;;35.30;23.17;100731.63;4955706;28;46020;-71
2023/07/25 15:16:27;;;;;;;;;2.00;2.00;;;;;34.85;23.66;100720.72;4953919;28;45293;-70
2023/07/25 15:18:53;;;;;;;;;1.25;1.25;;;;;34.51;23.54;100713.72;4956281;28;46054;-70
2023/07/25 15:21:18;;;;;;;;;1.50;1.50;;;;;34.28;23.85;100731.06;4955717;28;45285;-69
2023/07/25 15:23:44;;;;;;;;;1.00;1.00;;;;;33.85;24.08;100730.03;4955682;28;46105;-71
2023/07/25 15:26:10;;;;;;;;;1.00;1.00;;;;;33.54;23.96;100733.56;4955772;28;45512;-71
2023/07/25 15:28:36;;;;;;;;;0.75;0.75;;;;;33.24;23.83;100722.16;4953068;28;45538;-71
2023/07/25 15:31:01;;;;;;;;;1.75;1.00;;;;;32.90;24.71;100715.78;4932428;28;46205;-71
2023/07/25 15:33:26;;;;;;;;;1.00;1.00;;;;;32.79;24.50;100733.09;4952842;28;45632;-71
2023/07/25 15:35:52;;;;;;;;;1.75;1.75;;;;;32.58;24.99;100742.47;4945171;28;45323;-73
2023/07/25 15:38:17;;;;;;;;;1.25;1.25;;;;;32.35;24.78;100738.41;4956982;28;48003;-71
2023/07/25 15:40:42;;;;;;;;;1.25;1.25;;;;;32.16;24.77;100729.00;4954070;28;45310;-71
2023/07/25 15:43:08;;;;;;;;;1.75;1.75;;;;;31.82;24.21;100741.06;4958667;28;47018;-70
2023/07/25 15:45:35;;;;;;;;;2.75;1.75;;;;;31.63;24.65;100733.56;4960542;28;45533;-70
2023/07/25 15:48:01;;;;;;;;;1.00;1.00;;;;;31.34;25.78;100729.97;4959965;28;45439;-72
2023/07/25 15:50:26;;;;;;;;;0.50;0.50;;;;;31.17;25.88;100729.47;4946411;28;46219;-70
2023/07/25 15:52:52;;;;;;;;;1.00;1.00;;;;;30.99;25.91;100731.88;4955283;28;45901;-71